Time;durP1;ratioP1;P1;durP2;ratioP2;P2;SDS_P1;SDS_P2;PMS_P1;PMS_P2;Temp;Humidity;BMP_temperature;BMP_pressure;BME280_temperature;BME280_humidity;BME280_pressure;Samples;Min_cycle;Max_cycle;Signal;HPM_P1;HPM_P2
2024/02/03 00:00:24;;;;;;;3.60;1.57;;;;;;;8.79;100.00;101227.72;5034001;28;20917;-70
2024/02/03 00:02:51;;;;;;;3.30;1.30;;;;;;;8.79;100.00;101213.41;5033974;28;20996;-69
2024/02/03 00:05:19;;;;;;;6.40;1.90;;;;;;;8.79;100.00;101211.50;5034290;28;20855;-69
2024/02/03 00:07:45;;;;;;;3.13;1.17;;;;;;;8.69;100.00;101203.44;5034985;28;20439;-69
2024/02/03 00:10:12;;;;;;;5.83;2.20;;;;;;;8.74;100.00;101216.91;5034246;28;20507;-69
2024/02/03 00:12:39;;;;;;;2.27;1.33;;;;;;;8.80;100.00;101215.81;5034003;28;20951;-70
2024/02/03 00:15:06;;;;;;;4.40;2.00;;;;;;;8.78;100.00;101212.59;5034189;28;20435;-70
2024/02/03 00:17:33;;;;;;;2.37;1.00;;;;;;;8.74;100.00;101203.41;5033754;28;20435;-70
2024/02/03 00:20:00;;;;;;;3.27;1.90;;;;;;;8.78;100.00;101212.59;5034281;28;20556;-70
2024/02/03 00:22:28;;;;;;;4.17;1.73;;;;;;;8.77;100.00;101210.97;5033780;28;20463;-70
2024/02/03 00:24:55;;;;;;;2.43;1.27;;;;;;;8.78;100.00;101206.38;5033922;28;20440;-70
2024/02/03 00:27:21;;;;;;;4.70;2.37;;;;;;;8.83;100.00;101192.84;5033577;28;20969;-70
2024/02/03 00:29:48;;;;;;;4.80;1.37;;;;;;;8.79;100.00;101214.19;5034323;28;20443;-70
2024/02/03 00:32:15;;;;;;;3.23;1.63;;;;;;;8.83;100.00;101209.88;5033425;28;20459;-70
2024/02/03 00:34:44;;;;;;;5.37;1.53;;;;;;;8.79;100.00;101203.41;5034105;28;20443;-70
2024/02/03 00:37:10;;;;;;;5.07;1.93;;;;;;;8.77;100.00;101213.69;5034101;28;20499;-69
2024/02/03 00:39:41;;;;;;;5.67;1.37;;;;;;;8.79;100.00;101205.28;5033543;28;20994;-70
2024/02/03 00:42:08;;;;;;;4.67;1.60;;;;;;;8.80;100.00;101215.00;5033638;28;20513;-70
2024/02/03 00:44:35;;;;;;;3.70;1.20;;;;;;;8.82;100.00;101216.38;5033659;28;20813;-70
2024/02/03 00:47:01;;;;;;;5.53;1.67;;;;;;;8.89;100.00;101199.84;5033985;28;20501;-69
2024/02/03 00:49:28;;;;;;;3.60;1.77;;;;;;;8.89;100.00;101210.66;5033252;28;20517;-69
2024/02/03 00:51:55;;;;;;;4.20;1.50;;;;;;;8.88;100.00;101200.94;5033283;28;20452;-69
2024/02/03 00:54:22;;;;;;;4.00;1.73;;;;;;;8.90;100.00;101206.91;5033229;28;20953;-70
2024/02/03 00:56:50;;;;;;;4.20;1.90;;;;;;;8.90;100.00;101215.00;5033487;28;20447;-69
2024/02/03 00:59:17;;;;;;;6.03;1.57;;;;;;;8.95;100.00;101208.78;5033617;28;20447;-70
2024/02/03 01:01:44;;;;;;;4.27;1.63;;;;;;;8.95;100.00;101206.06;5033371;28;20518;-69
2024/02/03 01:04:10;;;;;;;5.13;1.60;;;;;;;9.01;100.00;101208.47;5033824;28;20522;-69
2024/02/03 01:06:37;;;;;;;2.43;1.00;;;;;;;9.00;100.00;101206.06;5033758;28;20494;-69
2024/02/03 01:09:04;;;;;;;4.00;1.33;;;;;;;9.04;100.00;101205.22;5033458;28;20947;-70
2024/02/03 01:11:31;;;;;;;3.50;0.90;;;;;;;9.06;100.00;101204.94;5033707;28;20442;-70
2024/02/03 01:13:59;;;;;;;7.70;1.10;;;;;;;9.14;100.00;101208.97;5033056;28;20494;-70
2024/02/03 01:16:26;;;;;;;3.97;1.60;;;;;;;9.18;100.00;101210.06;5033043;28;20974;-70
2024/02/03 01:18:52;;;;;;;3.70;1.50;;;;;;;9.17;100.00;101203.03;5033640;28;20470;-70
2024/02/03 01:21:19;;;;;;;3.40;1.77;;;;;;;9.14;100.00;101201.69;5033467;28;20912;-70
2024/02/03 01:23:46;;;;;;;3.30;1.50;;;;;;;9.14;100.00;101203.56;5032975;28;20497;-70
2024/02/03 01:26:12;;;;;;;4.43;1.97;;;;;;;9.20;100.00;101192.44;5034028;28;20435;-70
2024/02/03 01:28:39;;;;;;;4.67;1.73;;;;;;;9.18;100.00;101194.63;5033229;28;20463;-70
2024/02/03 01:31:09;;;;;;;3.93;1.47;;;;;;;9.23;100.00;101208.13;5033172;28;20431;-70
2024/02/03 01:33:36;;;;;;;2.60;0.90;;;;;;;9.32;100.00;101211.88;5032817;28;20872;-70
2024/02/03 01:36:03;;;;;;;3.63;1.80;;;;;;;9.30;100.00;101214.06;5033228;28;20443;-70
2024/02/03 01:38:30;;;;;;;4.90;1.77;;;;;;;9.38;100.00;101217.25;5032931;28;20441;-70
2024/02/03 01:40:56;;;;;;;4.80;1.77;;;;;;;9.35;100.00;101227.56;5032678;28;20509;-70
2024/02/03 01:43:23;;;;;;;3.60;1.67;;;;;;;9.40;100.00;101217.81;5032991;28;20509;-70
2024/02/03 01:45:51;;;;;;;3.27;1.20;;;;;;;9.35;100.00;101213.22;5033065;28;20970;-70
2024/02/03 01:48:20;;;;;;;3.80;1.80;;;;;;;9.40;100.00;101210.50;5033252;28;20454;-70
2024/02/03 01:50:50;;;;;;;4.80;1.40;;;;;;;9.43;100.00;101223.47;5033651;28;20497;-69
2024/02/03 01:53:18;;;;;;;3.30;1.43;;;;;;;9.47;100.00;101221.00;5032975;28;20810;-70
2024/02/03 01:55:45;;;;;;;4.33;2.40;;;;;;;9.59;100.00;101226.88;5033041;28;20466;-69
2024/02/03 01:58:12;;;;;;;5.83;1.97;;;;;;;9.64;100.00;101223.34;5032619;28;20874;-70
2024/02/03 02:00:39;;;;;;;3.50;1.40;;;;;;;9.65;100.00;101224.97;5032594;28;20506;-70
2024/02/03 02:03:06;;;;;;;6.93;1.70;;;;;;;9.65;100.00;101219.56;5032852;28;20501;-70
2024/02/03 02:05:34;;;;;;;3.10;1.27;;;;;;;9.71;100.00;101211.16;5035357;28;20919;-69
2024/02/03 02:08:01;;;;;;;3.67;1.47;;;;;;;9.73;100.00;101216.25;5036176;28;20994;-69
2024/02/03 02:10:27;;;;;;;5.47;1.67;;;;;;;9.77;100.00;101217.31;5036195;28;20435;-69
2024/02/03 02:12:54;;;;;;;5.60;2.33;;;;;;;9.77;100.00;101228.16;5035104;28;20862;-69
2024/02/03 02:15:21;;;;;;;3.47;1.33;;;;;;;9.77;100.00;101220.84;5036542;28;20442;-70
2024/02/03 02:17:48;;;;;;;2.63;1.27;;;;;;;9.80;100.00;101206.75;5036795;28;20431;-70
2024/02/03 02:20:16;;;;;;;5.20;1.93;;;;;;;9.92;100.00;101219.16;5036193;28;20442;-69
2024/02/03 02:22:43;;;;;;;3.27;2.07;;;;;;;9.97;100.00;101211.00;5036149;28;20463;-69
2024/02/03 02:25:10;;;;;;;2.87;1.20;;;;;;;9.99;100.00;101214.22;5035857;28;20435;-69
2024/02/03 02:27:37;;;;;;;4.60;1.73;;;;;;;10.00;100.00;101216.63;5035827;28;20993;-70
2024/02/03 02:30:05;;;;;;;4.53;1.80;;;;;;;10.00;100.00;101202.28;5036101;28;20534;-69
2024/02/03 02:32:31;;;;;;;3.97;1.73;;;;;;;10.03;100.00;101204.44;5036121;28;20486;-70
2024/02/03 02:34:58;;;;;;;5.00;1.93;;;;;;;10.09;100.00;101203.31;5035968;28;20471;-70
2024/02/03 02:37:27;;;;;;;3.87;2.10;;;;;;;10.03;100.00;101204.44;5035953;28;21008;-69
2024/02/03 02:39:53;;;;;;;5.60;2.03;;;;;;;10.06;100.00;101190.34;5035902;28;20451;-70
2024/02/03 02:42:20;;;;;;;4.70;1.83;;;;;;;10.06;100.00;101188.44;5035718;28;20900;-70
2024/02/03 02:44:47;;;;;;;2.90;1.47;;;;;;;10.02;100.00;101187.41;5035524;28;20923;-70
2024/02/03 02:47:13;;;;;;;2.87;1.27;;;;;;;10.12;100.00;101200.03;5035842;28;20497;-70
2024/02/03 02:49:40;;;;;;;3.87;1.70;;;;;;;10.10;100.00;101194.13;5035778;28;20549;-69
2024/02/03 02:52:07;;;;;;;5.43;2.90;;;;;;;10.14;100.00;101195.16;5035937;28;20493;-69
2024/02/03 02:54:35;;;;;;;8.00;2.60;;;;;;;10.17;100.00;101210.00;5035350;28;20534;-69
2024/02/03 02:57:01;;;;;;;4.63;1.83;;;;;;;10.14;100.00;101203.28;5035359;28;20475;-69
2024/02/03 02:59:28;;;;;;;4.73;1.47;;;;;;;10.21;100.00;101192.13;5035554;28;20518;-70
2024/02/03 03:01:55;;;;;;;3.27;1.80;;;;;;;10.22;100.00;101193.72;5035318;28;20487;-70
2024/02/03 03:04:21;;;;;;;4.47;2.37;;;;;;;10.19;100.00;101191.59;5035296;28;20447;-69
2024/02/03 03:06:48;;;;;;;4.70;2.50;;;;;;;10.18;100.00;101203.50;5035130;28;20473;-69
2024/02/03 03:09:16;;;;;;;4.73;2.47;;;;;;;10.28;100.00;101195.34;5035727;28;20789;-69
2024/02/03 03:11:44;;;;;;;6.70;3.03;;;;;;;10.31;100.00;101194.75;5035227;28;20837;-69
2024/02/03 03:14:11;;;;;;;7.83;2.83;;;;;;;10.26;100.00;101187.50;5035747;28;20506;-69
2024/02/03 03:16:37;;;;;;;5.90;2.70;;;;;;;10.24;100.00;101192.41;5035242;28;20501;-69
2024/02/03 03:19:04;;;;;;;4.43;2.07;;;;;;;10.32;100.00;101191.78;5035521;28;20443;-69
2024/02/03 03:21:30;;;;;;;5.30;2.43;;;;;;;10.34;100.00;101191.50;5035592;28;20526;-69
2024/02/03 03:23:57;;;;;;;5.17;2.53;;;;;;;10.42;100.00;101199.00;5035130;28;20990;-69
2024/02/03 03:26:24;;;;;;;5.23;1.97;;;;;;;10.46;100.00;101186.53;5035182;28;20546;-69
2024/02/03 03:28:52;;;;;;;5.33;2.30;;;;;;;10.52;100.00;101212.44;5035355;28;20447;-69
2024/02/03 03:31:18;;;;;;;6.43;2.40;;;;;;;10.50;100.00;101194.88;5035061;28;20887;-69
2024/02/03 03:33:45;;;;;;;6.10;2.87;;;;;;;10.37;100.00;101193.66;5034599;28;20884;-69
2024/02/03 03:36:12;;;;;;;6.50;3.70;;;;;;;10.39;100.00;101196.88;5034885;28;20467;-69
2024/02/03 03:38:42;;;;;;;6.50;2.97;;;;;;;10.30;100.00;101196.66;5034768;28;20864;-69
2024/02/03 03:41:09;;;;;;;5.13;2.40;;;;;;;10.35;100.00;101196.63;5035070;28;20467;-69
2024/02/03 03:43:36;;;;;;;6.50;2.37;;;;;;;10.30;100.00;101187.75;5034733;28;20482;-69
2024/02/03 03:46:04;;;;;;;9.30;4.00;;;;;;;10.27;100.00;101189.13;5035111;28;20443;-70
2024/02/03 03:48:31;;;;;;;5.00;2.33;;;;;;;10.37;100.00;101198.25;5034526;28;20455;-70
2024/02/03 03:50:57;;;;;;;5.30;2.67;;;;;;;10.29;100.00;101184.22;5034949;28;20531;-70
2024/02/03 03:53:24;;;;;;;7.80;3.63;;;;;;;10.29;100.00;101186.94;5034330;28;20527;-69
2024/02/03 03:55:51;;;;;;;3.73;1.73;;;;;;;10.37;100.00;101187.44;5034480;28;20444;-69
2024/02/03 03:58:17;;;;;;;7.70;3.23;;;;;;;10.30;100.00;101193.16;5034155;28;20443;-70
2024/02/03 04:00:44;;;;;;;4.10;1.53;;;;;;;10.39;100.00;101190.66;5034330;28;20530;-69
2024/02/03 04:03:12;;;;;;;6.47;2.50;;;;;;;10.43;100.00;101186.28;5034367;28;20490;-69
2024/02/03 04:05:38;;;;;;;4.30;1.60;;;;;;;10.43;100.00;101191.69;5034546;28;20849;-69
2024/02/03 04:08:06;;;;;;;4.07;1.93;;;;;;;10.40;100.00;101195.75;5033978;28;20875;-69
2024/02/03 04:10:33;;;;;;;5.00;1.53;;;;;;;10.47;100.00;101200.88;5033844;28;20809;-69
2024/02/03 04:12:59;;;;;;;8.97;3.00;;;;;;;10.57;100.00;101195.34;5034098;28;20959;-69
2024/02/03 04:15:28;;;;;;;6.73;2.93;;;;;;;10.61;100.00;101193.69;5034483;28;20443;-69
2024/02/03 04:17:56;;;;;;;5.27;2.93;;;;;;;10.57;100.00;101198.06;5033940;28;20506;-69
2024/02/03 04:20:25;;;;;;;5.00;2.70;;;;;;;10.65;100.00;101188.50;5034094;28;20443;-69
2024/02/03 04:22:51;;;;;;;4.10;1.93;;;;;;;10.71;100.00;101193.56;5034007;28;20494;-69
2024/02/03 04:25:18;;;;;;;14.10;2.67;;;;;;;10.70;100.00;101183.84;5033668;28;20534;-69
2024/02/03 04:27:45;;;;;;;5.50;2.40;;;;;;;10.60;100.00;101179.34;5033208;28;20470;-70
2024/02/03 04:30:12;;;;;;;6.47;2.50;;;;;;;10.61;100.00;101183.66;5034236;28;20438;-70
2024/02/03 04:32:39;;;;;;;6.43;2.60;;;;;;;10.66;100.00;101190.91;5034038;28;20534;-70
2024/02/03 04:35:06;;;;;;;5.60;2.50;;;;;;;10.71;100.00;101185.44;5034208;28;20517;-70
2024/02/03 04:37:34;;;;;;;6.87;2.90;;;;;;;10.73;100.00;101180.56;5033781;28;20518;-70
2024/02/03 04:40:01;;;;;;;3.90;2.27;;;;;;;10.79;100.00;101189.44;5033512;28;20998;-70
2024/02/03 04:42:27;;;;;;;4.67;2.10;;;;;;;10.88;100.00;101178.78;5033458;28;20991;-69
2024/02/03 04:44:54;;;;;;;4.30;1.93;;;;;;;10.82;100.00;101178.84;5034022;28;20518;-70
2024/02/03 04:47:21;;;;;;;6.33;2.00;;;;;;;10.83;100.00;101190.47;5033363;28;20490;-70
2024/02/03 04:49:47;;;;;;;4.23;2.13;;;;;;;10.91;100.00;101170.06;5033300;28;20533;-70
2024/02/03 04:52:14;;;;;;;8.97;2.73;;;;;;;10.91;100.00;101167.38;5033513;28;20486;-69
2024/02/03 04:54:42;;;;;;;4.20;2.10;;;;;;;10.88;100.00;101176.06;5033311;28;20525;-69
2024/02/03 04:57:09;;;;;;;3.10;1.33;;;;;;;10.95;100.00;101180.06;5033497;28;20803;-69
2024/02/03 04:59:35;;;;;;;5.30;2.70;;;;;;;10.92;100.00;101180.63;5033871;28;20537;-69
2024/02/03 05:02:02;;;;;;;6.40;2.67;;;;;;;10.95;100.00;101169.19;5033678;28;20511;-69
2024/02/03 05:04:29;;;;;;;3.90;2.13;;;;;;;10.85;100.00;101177.47;5033154;28;20451;-68
2024/02/03 05:06:55;;;;;;;4.10;2.20;;;;;;;10.85;100.00;101177.47;5033450;28;20439;-68
2024/02/03 05:09:22;;;;;;;5.90;3.07;;;;;;;10.80;100.00;101183.75;5033602;28;20439;-69
2024/02/03 05:11:50;;;;;;;5.50;2.60;;;;;;;10.84;100.00;101187.47;5033518;28;20538;-69
2024/02/03 05:14:17;;;;;;;5.90;2.40;;;;;;;10.81;100.00;101171.81;5033374;28;20441;-69
2024/02/03 05:16:43;;;;;;;4.70;2.40;;;;;;;10.81;100.00;101171.81;5033530;28;20435;-69
2024/02/03 05:19:12;;;;;;;7.20;2.93;;;;;;;10.84;100.00;101192.09;5033798;28;20486;-69
2024/02/03 05:21:38;;;;;;;4.30;2.30;;;;;;;10.85;100.00;101183.69;5033371;28;20482;-69
2024/02/03 05:24:06;;;;;;;3.53;1.83;;;;;;;10.81;100.00;101184.56;5033076;28;20530;-70
2024/02/03 05:26:32;;;;;;;4.00;1.37;;;;;;;10.71;100.00;101177.31;5033488;28;20446;-69
2024/02/03 05:29:00;;;;;;;4.13;1.70;;;;;;;10.68;100.00;101187.94;5032958;28;20538;-70
2024/02/03 05:31:27;;;;;;;6.43;2.90;;;;;;;10.79;100.00;101189.44;5033500;28;20520;-69
2024/02/03 05:33:53;;;;;;;2.93;1.30;;;;;;;10.77;100.00;101178.91;5033973;28;20443;-69
2024/02/03 05:36:20;;;;;;;4.73;1.80;;;;;;;10.75;100.00;101175.66;5033189;28;20542;-69
2024/02/03 05:38:46;;;;;;;4.80;2.30;;;;;;;10.73;100.00;101175.13;5033256;28;20529;-69
2024/02/03 05:41:13;;;;;;;4.60;1.83;;;;;;;10.77;100.00;101170.75;5037110;28;20445;-69
2024/02/03 05:43:40;;;;;;;4.00;2.10;;;;;;;10.83;100.00;101166.88;5036604;28;20897;-69
2024/02/03 05:46:09;;;;;;;2.70;1.37;;;;;;;10.74;100.00;101168.63;5036925;28;20478;-69
2024/02/03 05:48:35;;;;;;;4.17;1.70;;;;;;;10.85;100.00;101166.63;5051179;22;20487;-64
2024/02/03 05:51:02;;;;;;;5.97;2.40;;;;;;;10.80;100.00;101175.63;5037080;28;20439;-67
2024/02/03 05:53:34;;;;;;;8.43;1.90;;;;;;;10.84;100.00;101182.03;5037318;28;20509;-68
2024/02/03 05:56:01;;;;;;;5.57;2.67;;;;;;;10.85;100.00;101180.16;5037260;28;20445;-68
2024/02/03 05:58:28;;;;;;;5.10;2.30;;;;;;;10.88;100.00;101186.91;5036554;28;20530;-68
2024/02/03 06:00:55;;;;;;;3.30;1.30;;;;;;;10.83;100.00;101175.03;5036851;28;20518;-68
2024/02/03 06:03:23;;;;;;;4.00;1.73;;;;;;;10.91;100.00;101183.63;5036767;28;20507;-68
2024/02/03 06:05:50;;;;;;;5.90;2.37;;;;;;;10.87;100.00;101183.38;5036768;28;20439;-68
2024/02/03 06:08:17;;;;;;;3.20;1.60;;;;;;;10.88;100.00;101179.56;5036414;28;20501;-68
2024/02/03 06:10:43;;;;;;;4.20;1.50;;;;;;;10.85;100.00;101177.47;5036644;28;20914;-68
2024/02/03 06:13:10;;;;;;;3.63;1.73;;;;;;;10.84;100.00;101179.34;5036631;28;20533;-70
2024/02/03 06:15:37;;;;;;;2.50;1.20;;;;;;;10.79;100.00;101182.09;5036744;28;20526;-68
2024/02/03 06:18:04;;;;;;;2.80;1.27;;;;;;;10.80;100.00;101180.19;5036605;28;20496;-68
2024/02/03 06:20:32;;;;;;;4.13;1.63;;;;;;;10.90;100.00;101182.00;5036591;28;20530;-69
2024/02/03 06:22:58;;;;;;;3.77;2.13;;;;;;;10.86;100.00;101182.59;5036248;28;20501;-67
2024/02/03 06:25:25;;;;;;;4.63;1.73;;;;;;;10.81;100.00;101179.13;5036576;28;20474;-68
2024/02/03 06:27:51;;;;;;;3.33;1.20;;;;;;;10.77;100.00;101194.34;5036415;28;20439;-66
2024/02/03 06:30:18;;;;;;;4.03;1.50;;;;;;;10.74;100.00;101187.59;5036132;28;20505;-67
2024/02/03 06:32:45;;;;;;;2.27;1.13;;;;;;;10.76;100.00;101192.75;5035977;28;20971;-67
2024/02/03 06:35:11;;;;;;;2.63;1.10;;;;;;;10.72;100.00;101199.81;5036463;28;20475;-68
2024/02/03 06:37:39;;;;;;;3.30;1.30;;;;;;;10.69;100.00;101203.91;5036206;28;20891;-68
2024/02/03 06:40:07;;;;;;;4.33;1.70;;;;;;;10.66;100.00;101188.22;5037142;28;20445;-68
2024/02/03 06:42:34;;;;;;;2.80;1.23;;;;;;;10.70;100.00;101193.88;5036511;28;21044;-68
2024/02/03 06:45:00;;;;;;;5.13;1.60;;;;;;;10.67;100.00;101202.56;5035918;28;20435;-68
2024/02/03 06:47:27;;;;;;;3.40;1.40;;;;;;;10.73;100.00;101185.97;5036223;28;20447;-68
2024/02/03 06:49:54;;;;;;;3.23;1.30;;;;;;;10.71;100.00;101198.19;5035291;28;20455;-68
2024/02/03 06:52:20;;;;;;;5.33;1.43;;;;;;;10.75;100.00;101181.06;5035605;28;20487;-68
2024/02/03 06:54:48;;;;;;;3.13;1.40;;;;;;;10.77;100.00;101199.75;5036214;28;20443;-67
2024/02/03 06:57:15;;;;;;;3.53;1.50;;;;;;;10.79;100.00;101197.56;5035769;28;20522;-67
2024/02/03 06:59:41;;;;;;;3.03;1.10;;;;;;;10.70;100.00;101197.38;5036261;28;20530;-67
2024/02/03 07:02:08;;;;;;;4.77;1.97;;;;;;;10.70;100.00;101200.09;5035762;28;20483;-68
2024/02/03 07:04:35;;;;;;;3.23;1.30;;;;;;;10.65;100.00;101205.56;5035749;28;20502;-68
2024/02/03 07:07:03;;;;;;;3.57;1.13;;;;;;;10.65;100.00;101210.97;5036068;28;20439;-68
2024/02/03 07:09:30;;;;;;;4.57;1.90;;;;;;;10.70;100.00;101218.25;5035657;28;20475;-68
2024/02/03 07:11:58;;;;;;;5.50;1.40;;;;;;;10.70;100.00;101213.63;5035600;28;20491;-68
2024/02/03 07:14:24;;;;;;;4.27;2.07;;;;;;;10.66;100.00;101204.47;5035466;28;20518;-68
2024/02/03 07:16:51;;;;;;;2.20;0.90;;;;;;;10.59;100.00;101212.13;5035485;28;20443;-68
2024/02/03 07:19:17;;;;;;;5.30;1.90;;;;;;;10.54;100.00;101223.03;5035436;28;20442;-68
2024/02/03 07:21:44;;;;;;;3.60;1.77;;;;;;;10.59;100.00;101222.97;5035328;28;20465;-68
2024/02/03 07:24:11;;;;;;;3.40;1.60;;;;;;;10.58;100.00;101211.34;5035326;28;20931;-68
2024/02/03 07:26:37;;;;;;;3.77;2.10;;;;;;;10.51;100.00;101226.28;5035728;28;20443;-68
2024/02/03 07:29:05;;;;;;;3.53;1.53;;;;;;;10.44;100.00;101212.25;5035489;28;20451;-68
2024/02/03 07:31:32;;;;;;;4.27;1.80;;;;;;;10.43;100.00;101218.78;5035066;28;20443;-68
2024/02/03 07:33:58;;;;;;;3.40;1.87;;;;;;;10.49;100.00;101229.28;5034660;28;20471;-68
2024/02/03 07:36:26;;;;;;;5.80;1.77;;;;;;;10.53;100.00;101224.09;5034535;28;20435;-68
2024/02/03 07:38:52;;;;;;;4.20;1.40;;;;;;;10.47;100.00;101228.75;5035230;28;20522;-68
2024/02/03 07:41:19;;;;;;;4.13;1.57;;;;;;;10.40;100.00;101227.47;5034918;28;20443;-68
2024/02/03 07:43:46;;;;;;;4.50;1.30;;;;;;;10.43;100.00;101240.44;5034366;28;20478;-68
2024/02/03 07:46:14;;;;;;;3.13;1.77;;;;;;;10.45;100.00;101238.28;5034804;28;20863;-68
2024/02/03 07:48:40;;;;;;;2.57;1.00;;;;;;;10.38;100.00;101237.78;5034496;28;20550;-68
2024/02/03 07:51:07;;;;;;;4.10;1.57;;;;;;;10.29;100.00;101241.09;5034994;28;20905;-68
2024/02/03 07:53:34;;;;;;;3.20;1.67;;;;;;;10.33;100.00;101244.03;5034537;28;20539;-68
2024/02/03 07:56:00;;;;;;;3.77;1.87;;;;;;;10.29;100.00;101243.78;5034613;28;20531;-68
2024/02/03 07:58:27;;;;;;;3.73;1.30;;;;;;;10.28;100.00;101238.66;5034565;28;20432;-68
2024/02/03 08:00:54;;;;;;;3.37;1.27;;;;;;;10.19;100.00;101251.97;5034508;28;20868;-67
2024/02/03 08:03:22;;;;;;;3.40;1.07;;;;;;;10.17;100.00;101247.91;5033738;28;20483;-67
2024/02/03 08:05:49;;;;;;;4.50;1.80;;;;;;;10.16;100.00;101252.53;5034381;28;20529;-67
2024/02/03 08:08:15;;;;;;;3.63;1.60;;;;;;;10.10;100.00;101251.75;5034123;28;20447;-67
2024/02/03 08:10:42;;;;;;;4.70;1.60;;;;;;;10.11;100.00;101256.06;5033952;28;20439;-67
2024/02/03 08:13:08;;;;;;;4.17;2.07;;;;;;;10.15;100.00;101248.22;5034484;28;20541;-67
2024/02/03 08:15:35;;;;;;;3.30;1.50;;;;;;;10.21;100.00;101255.19;5033918;28;20479;-67
2024/02/03 08:18:02;;;;;;;3.97;1.50;;;;;;;10.24;100.00;101251.13;5034184;28;20982;-70
2024/02/03 08:20:31;;;;;;;4.47;1.50;;;;;;;10.24;100.00;101245.72;5034361;28;20525;-67
2024/02/03 08:22:58;;;;;;;2.30;1.10;;;;;;;10.24;100.00;101243.84;5034119;28;20581;-68
2024/02/03 08:25:24;;;;;;;3.10;1.07;;;;;;;10.28;100.00;101228.66;5034034;28;20522;-68
2024/02/03 08:27:51;;;;;;;2.73;1.30;;;;;;;10.28;100.00;101227.84;5033795;28;20538;-68
2024/02/03 08:30:18;;;;;;;3.10;1.33;;;;;;;10.26;100.00;101228.09;5033884;28;20530;-68
2024/02/03 08:32:44;;;;;;;2.90;1.13;;;;;;;10.29;100.00;101232.16;5033783;28;20855;-68
2024/02/03 08:35:11;;;;;;;4.30;1.50;;;;;;;10.35;100.00;101220.19;5034195;28;20509;-68
2024/02/03 08:37:39;;;;;;;3.30;1.23;;;;;;;10.35;100.00;101218.28;5033809;28;20478;-68
2024/02/03 08:40:07;;;;;;;3.00;1.23;;;;;;;10.35;100.00;101229.13;5034279;28;20526;-68
2024/02/03 08:42:33;;;;;;;3.43;1.50;;;;;;;10.31;100.00;101238.91;5034229;28;20491;-68
2024/02/03 08:45:00;;;;;;;4.40;1.60;;;;;;;10.37;100.00;101238.88;5033426;28;20490;-68
2024/02/03 08:47:27;;;;;;;3.27;1.37;;;;;;;10.36;100.00;101238.06;5033643;28;20443;-68
2024/02/03 08:49:56;;;;;;;4.30;2.10;;;;;;;10.35;100.00;101237.25;5033325;28;20550;-68
2024/02/03 08:52:23;;;;;;;2.47;1.17;;;;;;;10.34;100.00;101235.63;5033571;28;20463;-68
2024/02/03 08:54:51;;;;;;;3.50;1.60;;;;;;;10.38;100.00;101240.47;5033934;28;20526;-68
2024/02/03 08:57:17;;;;;;;3.13;1.63;;;;;;;10.39;100.00;101228.56;5033768;28;20443;-67
2024/02/03 08:59:44;;;;;;;3.30;1.40;;;;;;;10.40;100.00;101230.97;5033505;28;20447;-67
2024/02/03 09:02:11;;;;;;;3.43;1.70;;;;;;;10.41;100.00;101237.22;5033186;28;20495;-67
2024/02/03 09:04:37;;;;;;;3.30;1.23;;;;;;;10.50;100.00;101224.69;5033830;28;20533;-67
2024/02/03 09:07:04;;;;;;;2.87;1.10;;;;;;;10.46;100.00;101218.22;5033438;28;20447;-67
2024/02/03 09:09:31;;;;;;;3.80;1.47;;;;;;;10.44;100.00;101232.03;5033501;28;20450;-67
2024/02/03 09:11:59;;;;;;;2.90;1.20;;;;;;;10.46;100.00;101229.03;5033251;28;21008;-67
2024/02/03 09:14:25;;;;;;;2.00;0.77;;;;;;;10.46;100.00;101223.63;5036301;28;20481;-67
2024/02/03 09:16:52;;;;;;;6.23;2.13;;;;;;;10.46;100.00;101220.94;5037846;28;20438;-68
2024/02/03 09:19:19;;;;;;;2.83;0.97;;;;;;;10.49;100.00;101231.16;5037500;28;20957;-68
2024/02/03 09:21:45;;;;;;;2.63;1.00;;;;;;;10.50;100.00;101240.94;5037662;28;20458;-68
2024/02/03 09:24:12;;;;;;;3.10;1.27;;;;;;;10.52;100.00;101244.16;5037434;28;20557;-68
2024/02/03 09:26:39;;;;;;;2.23;1.13;;;;;;;10.46;100.00;101248.00;5037444;28;20533;-68
2024/02/03 09:31:53;;;;;;;5.30;1.80;;;;;;;10.45;100.00;101241.78;5036778;28;20799;-68
2024/02/03 09:34:19;;;;;;;3.03;1.67;;;;;;;10.46;100.00;101256.13;5037209;28;20435;-68
2024/02/03 09:36:46;;;;;;;2.10;0.90;;;;;;;10.47;100.00;101244.19;5037498;28;20526;-68
2024/02/03 09:39:12;;;;;;;4.17;2.30;;;;;;;10.43;100.00;101262.09;5036777;28;20530;-69
2024/02/03 09:41:40;;;;;;;3.17;1.40;;;;;;;10.45;100.00;101249.09;5037026;28;20900;-68
2024/02/03 09:44:08;;;;;;;3.77;1.60;;;;;;;10.48;100.00;101260.16;5036928;28;20540;-68
2024/02/03 09:46:35;;;;;;;2.60;1.00;;;;;;;10.54;100.00;101248.22;5037029;28;20441;-68
2024/02/03 09:49:02;;;;;;;2.90;1.43;;;;;;;10.56;100.00;101247.91;5036606;28;20447;-68
2024/02/03 09:51:30;;;;;;;3.70;1.43;;;;;;;10.58;100.00;101243.00;5036998;28;20981;-68
2024/02/03 09:53:58;;;;;;;2.73;1.00;;;;;;;10.56;100.00;101267.69;5036880;28;20435;-68
2024/02/03 09:56:25;;;;;;;3.20;0.90;;;;;;;10.60;100.00;101265.22;5036938;28;20451;-68
2024/02/03 09:58:51;;;;;;;3.17;1.30;;;;;;;10.67;100.00;101263.00;5037005;28;20542;-68
2024/02/03 10:01:19;;;;;;;3.67;1.20;;;;;;;10.69;100.00;101257.28;5036415;28;20521;-68
2024/02/03 10:03:56;;;;;;;2.83;1.60;;;;;;;10.66;100.00;101257.84;5036299;28;21033;-68
2024/02/03 10:06:22;;;;;;;3.43;1.57;;;;;;;10.70;100.00;101257.00;5036759;28;20423;-68
2024/02/03 10:08:53;;;;;;;3.70;0.80;;;;;;;10.72;100.00;101260.25;5036928;28;20434;-68
2024/02/03 10:11:20;;;;;;;3.60;1.53;;;;;;;10.77;100.00;101253.97;5036517;28;20793;-68
2024/02/03 10:13:49;;;;;;;2.50;1.10;;;;;;;10.74;100.00;101251.81;5036204;28;20526;-68
2024/02/03 10:16:15;;;;;;;3.50;1.20;;;;;;;10.71;100.00;101255.88;5036403;28;20442;-68
2024/02/03 10:18:43;;;;;;;3.40;1.43;;;;;;;10.78;100.00;101252.84;5037035;28;20446;-68
2024/02/03 10:21:10;;;;;;;2.40;0.90;;;;;;;10.78;100.00;101252.84;5036050;28;20521;-68
2024/02/03 10:23:37;;;;;;;2.80;1.40;;;;;;;10.81;100.00;101247.69;5036406;28;20540;-68
2024/02/03 10:26:03;;;;;;;4.43;1.27;;;;;;;10.83;100.00;101239.25;5035881;28;20808;-68
2024/02/03 10:28:30;;;;;;;3.23;1.40;;;;;;;10.78;100.00;101245.53;5036874;28;20443;-68
2024/02/03 10:31:03;;;;;;;2.60;1.30;;;;;;;10.80;100.00;101235.22;5036224;28;20530;-68
2024/02/03 10:33:30;;;;;;;3.03;1.20;;;;;;;10.82;100.00;101243.88;5036062;28;20498;-68
2024/02/03 10:35:59;;;;;;;2.50;1.13;;;;;;;10.92;100.00;101239.44;5035792;28;20966;-68
2024/02/03 10:38:25;;;;;;;2.87;1.20;;;;;;;10.94;100.00;101248.09;5036528;28;20466;-68
2024/02/03 10:40:53;;;;;;;4.17;1.40;;;;;;;11.00;100.00;101250.47;5036271;28;20439;-68
2024/02/03 10:43:20;;;;;;;2.10;0.80;;;;;;;10.96;100.00;101245.91;5036197;28;20486;-68
2024/02/03 10:45:51;;;;;;;3.83;1.80;;;;;;;10.98;100.00;101247.25;5035888;28;20530;-67
2024/02/03 10:48:20;;;;;;;5.03;1.70;;;;;;;11.03;100.00;101249.09;5035698;28;20457;-68
2024/02/03 10:50:50;;;;;;;3.50;1.30;;;;;;;11.01;100.00;101240.44;5035554;28;20511;-67
2024/02/03 10:53:23;;;;;;;4.20;1.60;;;;;;;11.07;100.00;101250.13;5035455;28;20987;-69
2024/02/03 10:55:55;;;;;;;2.67;1.23;;;;;;;11.08;100.00;101247.13;5035838;28;20430;-71
2024/02/03 10:58:25;;;;;;;2.80;0.83;;;;;;;11.10;100.00;101244.94;5035442;28;20428;-66
2024/02/03 11:00:53;;;;;;;2.23;0.97;;;;;;;11.13;100.00;101245.47;5035938;28;20758;-67
2024/02/03 11:03:20;;;;;;;3.17;1.33;;;;;;;11.16;100.00;101237.56;5035428;28;20478;-67
2024/02/03 11:05:47;;;;;;;4.30;2.00;;;;;;;11.21;100.00;101245.63;5035631;28;20440;-66
2024/02/03 11:08:14;;;;;;;3.00;1.40;;;;;;;11.13;100.00;101224.56;5035666;28;20467;-66
2024/02/03 11:10:42;;;;;;;5.10;1.33;;;;;;;11.14;100.00;101242.44;5035652;28;20911;-66
2024/02/03 11:13:20;;;;;;;3.20;1.47;;;;;;;11.15;100.00;101227.78;5035495;28;20458;-66
2024/02/03 11:15:47;;;;;;;3.00;1.50;;;;;;;11.13;100.00;101242.75;5035866;28;20530;-68
2024/02/03 11:18:14;;;;;;;2.83;1.27;;;;;;;11.19;100.00;101231.53;5035670;28;20506;-68
2024/02/03 11:20:41;;;;;;;3.10;1.40;;;;;;;11.13;100.00;101226.47;5035851;28;20447;-67